createdAt,value
2022-11-08T00:01:49.300Z,37.60
2022-11-08T00:07:10.765Z,38.80
2022-11-08T00:12:32.091Z,37.20
2022-11-08T00:17:35.634Z,41.60
2022-11-08T00:22:39.078Z,32.90
2022-11-08T00:27:42.758Z,35.10
2022-11-08T00:32:46.209Z,35.90
2022-11-08T00:37:49.687Z,40.30
2022-11-08T00:42:53.128Z,39.10
2022-11-08T00:47:56.586Z,36.60
2022-11-08T00:53:00.247Z,36.30
2022-11-08T00:58:03.713Z,34.70
2022-11-08T01:03:23.762Z,42.00
2022-11-08T01:08:27.242Z,47.00
2022-11-08T01:13:30.740Z,46.50
2022-11-08T01:18:34.208Z,42.90
2022-11-08T01:23:37.669Z,46.50
2022-11-08T01:28:41.115Z,44.30
2022-11-08T01:33:49.905Z,46.80
2022-11-08T01:43:58.270Z,43.80
2022-11-08T01:49:01.746Z,42.80
2022-11-08T01:54:05.202Z,43.60
2022-11-08T01:59:08.828Z,47.80
2022-11-08T02:04:12.312Z,38.40
2022-11-08T02:09:15.757Z,38.40
2022-11-08T02:14:19.233Z,41.80
2022-11-08T02:19:22.726Z,38.90
2022-11-08T02:24:26.226Z,37.70
2022-11-08T02:29:29.684Z,36.70
2022-11-08T02:34:33.149Z,35.00
2022-11-08T02:39:36.636Z,40.10
2022-11-08T02:44:40.096Z,37.90
2022-11-08T02:49:43.563Z,34.40
2022-11-08T02:54:47.005Z,38.90
2022-11-08T02:59:50.510Z,39.80
2022-11-08T03:04:53.965Z,37.80
2022-11-08T03:09:57.479Z,33.90
2022-11-08T03:15:00.940Z,37.20
2022-11-08T03:20:04.401Z,35.60
2022-11-08T03:25:08.123Z,39.00
2022-11-08T03:30:11.573Z,36.30
2022-11-08T03:35:15.477Z,36.20
2022-11-08T03:45:22.372Z,38.30
2022-11-08T03:50:25.829Z,38.10
2022-11-08T03:55:29.281Z,36.50
2022-11-08T04:00:32.791Z,37.50
2022-11-08T04:05:36.244Z,34.80
2022-11-08T04:10:39.740Z,40.20
2022-11-08T04:15:43.257Z,35.80
2022-11-08T04:21:04.482Z,34.40
2022-11-08T04:26:08.122Z,35.50
2022-11-08T04:31:11.818Z,37.30
2022-11-08T04:36:15.277Z,36.40
2022-11-08T04:41:18.819Z,34.90
2022-11-08T04:46:22.343Z,40.90
2022-11-08T04:51:26.865Z,36.40
2022-11-08T04:56:30.562Z,46.20
2022-11-08T05:01:34.146Z,44.90
2022-11-08T05:06:37.760Z,38.00
2022-11-08T05:11:41.237Z,38.50
2022-11-08T05:16:44.741Z,37.20
2022-11-08T05:22:06.074Z,39.40
2022-11-08T05:27:09.548Z,42.60
2022-11-08T05:32:13.043Z,38.60
2022-11-08T05:37:16.510Z,36.20
2022-11-08T05:42:20.010Z,37.10
2022-11-08T05:47:23.769Z,40.20
2022-11-08T05:52:27.350Z,40.90
2022-11-08T05:57:30.818Z,41.70
2022-11-08T06:02:34.390Z,67.00
2022-11-08T06:07:38.102Z,131.60
2022-11-08T06:12:41.557Z,126.20
2022-11-08T06:17:46.065Z,117.90
2022-11-08T06:22:49.673Z,118.30
2022-11-08T06:27:53.238Z,112.10
2022-11-08T06:32:56.813Z,114.10
2022-11-08T06:38:02.729Z,119.70
2022-11-08T06:43:08.068Z,113.60
2022-11-08T06:48:11.849Z,123.40
2022-11-08T06:53:15.871Z,117.60
2022-11-08T06:58:19.853Z,105.10
2022-11-08T07:03:23.379Z,110.80
2022-11-08T07:08:26.978Z,108.30
2022-11-08T07:13:30.450Z,125.20
2022-11-08T07:18:34.135Z,124.30
2022-11-08T07:23:37.719Z,119.70
2022-11-08T07:28:41.403Z,117.30
2022-11-08T07:33:44.878Z,119.20
2022-11-08T07:38:48.366Z,114.00
2022-11-08T07:43:51.974Z,111.20
2022-11-08T07:48:55.436Z,108.40
2022-11-08T07:54:02.789Z,104.10
2022-11-08T07:59:07.894Z,100.00
2022-11-08T08:04:12.375Z,91.20
2022-11-08T08:09:15.809Z,93.30
2022-11-08T08:14:19.361Z,88.70
2022-11-08T08:19:22.892Z,89.50
2022-11-08T08:24:26.693Z,90.90
2022-11-08T08:34:33.592Z,83.10
2022-11-08T08:39:37.044Z,76.90
2022-11-08T08:44:40.480Z,75.90
2022-11-08T08:49:43.973Z,68.70
2022-11-08T08:54:47.445Z,67.30
2022-11-08T09:05:14.342Z,45.40
2022-11-08T09:10:17.773Z,37.60
2022-11-08T09:15:21.299Z,32.60
2022-11-08T09:20:24.810Z,29.70
2022-11-08T09:25:28.332Z,33.30
2022-11-08T09:30:31.809Z,31.70
2022-11-08T09:35:35.292Z,30.00
2022-11-08T09:40:38.846Z,25.70
2022-11-08T09:45:42.315Z,25.20
2022-11-08T09:50:45.893Z,29.20
2022-11-08T09:55:50.097Z,30.30
2022-11-08T10:00:53.747Z,26.30
2022-11-08T10:05:57.233Z,28.30
2022-11-08T10:11:00.687Z,28.20
2022-11-08T10:16:04.131Z,25.60
2022-11-08T10:21:07.585Z,23.50
2022-11-08T10:26:11.059Z,26.50
2022-11-08T10:31:15.542Z,31.00
2022-11-08T10:36:19.015Z,27.00
2022-11-08T10:41:22.453Z,29.20
2022-11-08T10:46:25.953Z,25.20
2022-11-08T10:51:29.489Z,25.40
2022-11-08T10:56:37.687Z,24.70
2022-11-08T11:01:44.908Z,23.20
2022-11-08T11:06:49.626Z,24.80
2022-11-08T11:11:53.117Z,21.80
2022-11-08T11:16:56.692Z,21.50
2022-11-08T11:22:01.209Z,22.80
2022-11-08T11:27:04.738Z,20.90
2022-11-08T11:32:08.179Z,24.20
2022-11-08T11:37:11.661Z,22.60
2022-11-08T11:42:43.969Z,20.50
2022-11-08T11:47:39.668Z,15.80
2022-11-08T11:52:43.109Z,18.60
2022-11-08T11:57:46.653Z,17.80
2022-11-08T12:02:50.109Z,17.90
2022-11-08T12:07:53.585Z,16.30
2022-11-08T12:12:57.092Z,17.50
2022-11-08T12:18:00.605Z,12.30
2022-11-08T12:23:04.182Z,15.20
2022-11-08T12:28:07.774Z,15.30
2022-11-08T12:33:11.273Z,14.00
2022-11-08T12:38:15.862Z,12.50
2022-11-08T12:43:20.168Z,9.40
2022-11-08T12:48:23.605Z,7.30
2022-11-08T12:53:27.050Z,8.60
2022-11-08T12:58:34.174Z,9.80
2022-11-08T13:03:38.110Z,5.30
2022-11-08T13:08:41.593Z,5.80
2022-11-08T13:13:45.120Z,7.20
2022-11-08T13:18:48.774Z,8.20
2022-11-08T13:23:52.322Z,8.50
2022-11-08T13:28:56.889Z,10.00
2022-11-08T13:34:00.460Z,10.10
2022-11-08T13:39:03.997Z,18.00
2022-11-08T13:44:07.506Z,17.10
2022-11-08T13:49:10.988Z,14.10
2022-11-08T13:54:14.538Z,19.10
2022-11-08T13:59:18.806Z,20.30
2022-11-08T14:04:24.473Z,20.60
2022-11-08T14:09:32.232Z,19.90
2022-11-08T14:14:37.301Z,22.70
2022-11-08T14:19:40.816Z,22.70
2022-11-08T14:24:44.312Z,19.30
2022-11-08T14:29:47.795Z,23.20
2022-11-08T14:34:51.277Z,19.70
2022-11-08T14:39:54.712Z,16.90
2022-11-08T14:44:58.886Z,19.20
2022-11-08T14:50:02.342Z,13.10
2022-11-08T14:55:06.077Z,16.10
2022-11-08T15:00:11.399Z,13.10
2022-11-08T15:05:15.514Z,15.30
2022-11-08T15:10:19.048Z,16.80
2022-11-08T15:15:22.582Z,17.30
2022-11-08T15:20:27.146Z,14.70
2022-11-08T15:25:31.658Z,17.00
2022-11-08T15:30:35.186Z,15.90
2022-11-08T15:35:38.635Z,14.20
2022-11-08T15:40:42.114Z,16.20
2022-11-08T15:45:45.630Z,15.10
2022-11-08T15:50:49.082Z,16.50
2022-11-08T15:55:52.686Z,14.70
2022-11-08T16:00:56.722Z,15.90
2022-11-08T16:06:00.332Z,18.40
2022-11-08T16:11:03.881Z,16.60
2022-11-08T16:16:07.349Z,16.40
2022-11-08T16:21:10.906Z,16.20
2022-11-08T16:26:14.618Z,14.90
2022-11-08T16:31:18.674Z,13.90
2022-11-08T16:41:25.692Z,18.40
2022-11-08T16:46:29.220Z,15.10
2022-11-08T16:51:32.731Z,17.80
2022-11-08T16:56:36.340Z,17.70
2022-11-08T17:01:39.938Z,19.40
2022-11-08T17:06:43.759Z,20.90
2022-11-08T17:11:47.316Z,22.80
2022-11-08T17:16:53.802Z,19.50
2022-11-08T17:21:57.598Z,19.30
2022-11-08T17:27:01.332Z,23.40
2022-11-08T17:32:04.961Z,24.40
2022-11-08T17:37:08.560Z,26.20
2022-11-08T17:42:12.161Z,23.90
2022-11-08T17:47:15.609Z,27.50
2022-11-08T17:52:19.648Z,31.10
2022-11-08T18:02:28.142Z,29.20
2022-11-08T18:07:31.895Z,29.70
2022-11-08T18:12:36.399Z,27.00
2022-11-08T18:17:39.853Z,25.10
2022-11-08T18:22:43.318Z,27.80
2022-11-08T18:27:46.849Z,28.40
2022-11-08T18:32:50.314Z,29.20
2022-11-08T18:37:53.748Z,33.00
2022-11-08T18:42:57.346Z,28.40
2022-11-08T18:48:01.045Z,32.80
2022-11-08T18:53:06.998Z,32.50
2022-11-08T18:58:10.455Z,40.70
2022-11-08T19:03:13.906Z,39.40
2022-11-08T19:08:17.366Z,43.40
2022-11-08T19:13:21.088Z,42.80
2022-11-08T19:23:28.312Z,42.90
2022-11-08T19:28:32.986Z,41.90
2022-11-08T19:33:36.672Z,43.10
2022-11-08T19:38:40.135Z,42.40
2022-11-08T19:43:45.748Z,41.80
2022-11-08T19:48:51.939Z,40.80
2022-11-08T19:53:55.757Z,40.80
2022-11-08T19:59:02.527Z,39.20
2022-11-08T20:04:18.545Z,40.00
2022-11-08T20:09:28.942Z,42.60
2022-11-08T20:14:34.509Z,38.60
2022-11-08T20:19:52.384Z,38.30
2022-11-08T20:24:58.954Z,45.70
2022-11-08T20:30:02.449Z,36.10
2022-11-08T20:35:05.945Z,33.30
2022-11-08T20:40:09.390Z,36.70
2022-11-08T20:45:15.093Z,35.80
2022-11-08T20:50:18.980Z,35.20
2022-11-08T20:55:24.240Z,34.70
2022-11-08T21:00:52.012Z,30.20
2022-11-08T21:05:51.188Z,32.00
2022-11-08T21:10:56.479Z,38.80
2022-11-08T21:16:19.752Z,35.10
2022-11-08T21:21:24.174Z,37.90
2022-11-08T21:26:27.930Z,32.40
2022-11-08T21:31:31.386Z,31.60
2022-11-08T21:36:34.836Z,31.20
2022-11-08T21:41:38.294Z,35.40
2022-11-08T21:46:41.738Z,33.40
2022-11-08T21:51:45.183Z,31.70
2022-11-08T21:56:48.680Z,30.70
2022-11-08T22:01:52.122Z,28.50
2022-11-08T22:06:55.668Z,32.40
2022-11-08T22:11:59.285Z,30.00
2022-11-08T22:17:02.800Z,34.10
2022-11-08T22:22:06.245Z,30.50
2022-11-08T22:27:09.668Z,30.40
2022-11-08T22:32:13.114Z,31.20
2022-11-08T22:37:16.713Z,27.70
2022-11-08T22:42:20.321Z,27.40
2022-11-08T22:47:23.778Z,30.70
2022-11-08T22:52:27.270Z,27.60
2022-11-08T22:57:30.810Z,29.50
2022-11-08T23:02:36.364Z,29.40
2022-11-08T23:07:41.015Z,26.40
2022-11-08T23:13:02.348Z,25.90
2022-11-08T23:18:05.777Z,28.70
2022-11-08T23:23:35.487Z,27.80
2022-11-08T23:28:57.493Z,24.90
2022-11-08T23:34:00.994Z,29.90
2022-11-08T23:39:04.433Z,30.20
2022-11-08T23:44:27.747Z,28.30
2022-11-08T23:49:31.235Z,28.50
2022-11-08T23:54:34.774Z,28.60
2022-11-08T23:59:38.224Z,27.60
